createdAt,value
2017-10-13T00:01:10.832Z,65.14
2017-10-13T00:03:38.398Z,65.08
2017-10-13T00:06:05.979Z,65.29
2017-10-13T00:08:33.574Z,65.29
2017-10-13T00:11:01.150Z,65.12
2017-10-13T00:13:28.685Z,65.34
2017-10-13T00:15:56.285Z,65.29
2017-10-13T00:18:23.817Z,65.13
2017-10-13T00:20:51.350Z,65.37
2017-10-13T00:23:18.963Z,65.74
2017-10-13T00:25:46.494Z,65.91
2017-10-13T00:28:14.010Z,66.25
2017-10-13T00:30:41.722Z,66.10
2017-10-13T00:33:09.282Z,66.03
2017-10-13T00:35:36.802Z,66.29
2017-10-13T00:38:04.381Z,66.11
2017-10-13T00:40:31.991Z,65.97
2017-10-13T00:42:59.505Z,66.46
2017-10-13T00:45:28.033Z,66.34
2017-10-13T00:47:55.665Z,66.70
2017-10-13T00:50:23.426Z,66.65
2017-10-13T00:52:51.010Z,66.74
2017-10-13T00:55:18.546Z,67.19
2017-10-13T00:57:46.183Z,66.77
2017-10-13T01:00:13.790Z,67.50
2017-10-13T01:02:41.366Z,66.34
2017-10-13T01:05:09.341Z,66.97
2017-10-13T01:07:36.982Z,68.03
2017-10-13T01:10:04.738Z,68.15
2017-10-13T01:12:32.293Z,68.29
2017-10-13T01:14:59.931Z,68.00
2017-10-13T01:17:27.475Z,68.84
2017-10-13T01:19:55.074Z,69.10
2017-10-13T01:22:22.646Z,68.36
2017-10-13T01:24:50.274Z,68.21
2017-10-13T01:27:17.840Z,67.82
2017-10-13T01:29:45.852Z,67.17
2017-10-13T01:32:13.474Z,67.25
2017-10-13T01:34:41.114Z,67.01
2017-10-13T01:37:08.967Z,67.17
2017-10-13T01:39:36.730Z,67.77
2017-10-13T01:42:04.370Z,67.76
2017-10-13T01:44:31.964Z,68.00
2017-10-13T01:46:59.610Z,68.27
2017-10-13T01:49:27.171Z,68.17
2017-10-13T01:51:54.787Z,68.75
2017-10-13T01:54:22.400Z,68.36
2017-10-13T01:56:50.236Z,67.62
2017-10-13T01:59:18.044Z,68.30
2017-10-13T02:01:45.667Z,68.58
2017-10-13T02:04:13.483Z,68.44
2017-10-13T02:06:41.117Z,68.73
2017-10-13T02:09:08.747Z,68.34
2017-10-13T02:11:36.365Z,68.55
2017-10-13T02:14:03.955Z,68.56
2017-10-13T02:16:31.524Z,69.10
2017-10-13T02:18:59.070Z,68.73
2017-10-13T02:21:26.695Z,68.70
2017-10-13T02:23:54.314Z,68.41
2017-10-13T02:26:21.921Z,68.57
2017-10-13T02:28:49.479Z,68.96
2017-10-13T02:31:17.043Z,68.56
2017-10-13T02:33:44.599Z,68.56
2017-10-13T02:36:12.153Z,68.72
2017-10-13T02:38:39.774Z,69.14
2017-10-13T02:41:07.500Z,68.84
2017-10-13T02:43:35.080Z,69.40
2017-10-13T02:46:02.697Z,69.37
2017-10-13T02:48:30.277Z,69.54
2017-10-13T02:50:57.870Z,68.38
2017-10-13T02:53:25.478Z,70.01
2017-10-13T02:55:53.127Z,70.91
2017-10-13T02:58:20.664Z,69.35
2017-10-13T03:00:48.325Z,69.17
2017-10-13T03:03:15.927Z,70.08
2017-10-13T03:05:43.482Z,70.40
2017-10-13T03:08:11.107Z,70.20
2017-10-13T03:10:38.642Z,70.58
2017-10-13T03:13:06.157Z,70.38
2017-10-13T03:15:33.731Z,70.54
2017-10-13T03:18:01.269Z,69.78
2017-10-13T03:20:29.082Z,70.06
2017-10-13T03:22:56.647Z,70.06
2017-10-13T03:25:24.181Z,70.33
2017-10-13T03:27:51.772Z,70.25
2017-10-13T03:30:19.431Z,70.06
2017-10-13T03:32:47.011Z,69.49
2017-10-13T03:35:14.581Z,69.09
2017-10-13T03:37:42.228Z,69.35
2017-10-13T03:40:09.771Z,69.84
2017-10-13T03:42:37.332Z,69.47
2017-10-13T03:45:05.046Z,69.10
2017-10-13T03:47:32.706Z,69.35
2017-10-13T03:50:00.256Z,68.77
2017-10-13T03:52:27.840Z,68.48
2017-10-13T03:54:55.450Z,68.67
2017-10-13T03:57:23.725Z,70.63
2017-10-13T03:59:51.386Z,70.83
2017-10-13T04:02:18.999Z,72.08
2017-10-13T04:04:46.594Z,72.44
2017-10-13T04:07:14.155Z,70.91
2017-10-13T04:09:41.756Z,69.87
2017-10-13T04:12:09.514Z,70.08
2017-10-13T04:14:37.101Z,69.29
2017-10-13T04:17:04.759Z,69.64
2017-10-13T04:19:33.496Z,70.70
2017-10-13T04:22:01.287Z,70.65
2017-10-13T04:24:28.903Z,70.20
2017-10-13T04:26:56.485Z,70.04
2017-10-13T04:29:24.306Z,70.26
2017-10-13T04:31:51.886Z,70.47
2017-10-13T04:34:19.663Z,70.51
2017-10-13T04:36:47.773Z,70.74
2017-10-13T04:39:15.346Z,70.96
2017-10-13T04:41:42.878Z,70.23
2017-10-13T04:44:10.709Z,70.09
2017-10-13T04:46:38.260Z,70.03
2017-10-13T04:49:05.851Z,69.55
2017-10-13T04:51:33.654Z,68.33
2017-10-13T04:54:01.245Z,67.91
2017-10-13T04:56:28.789Z,66.04
2017-10-13T04:58:56.336Z,65.41
2017-10-13T05:01:23.895Z,64.20
2017-10-13T05:03:51.443Z,65.56
2017-10-13T05:06:19.013Z,65.93
2017-10-13T05:08:46.598Z,65.12
2017-10-13T05:11:14.147Z,66.34
2017-10-13T05:13:42.020Z,67.18
2017-10-13T05:16:09.585Z,67.90
2017-10-13T05:18:37.132Z,66.19
2017-10-13T05:21:04.691Z,63.80
2017-10-13T05:23:32.302Z,62.56
2017-10-13T05:26:00.050Z,61.63
2017-10-13T05:28:27.567Z,58.62
2017-10-13T05:30:55.164Z,57.85
2017-10-13T05:33:22.807Z,56.34
2017-10-13T05:35:50.349Z,55.83
2017-10-13T05:38:17.915Z,54.49
2017-10-13T05:40:45.487Z,52.71
2017-10-13T05:43:13.091Z,53.14
2017-10-13T05:45:40.710Z,52.00
2017-10-13T05:48:08.580Z,50.82
2017-10-13T05:50:36.119Z,50.38
2017-10-13T05:53:03.698Z,48.65
2017-10-13T05:55:31.223Z,49.01
2017-10-13T05:57:58.843Z,49.47
2017-10-13T06:00:26.440Z,48.46
2017-10-13T06:02:53.980Z,47.77
2017-10-13T06:05:21.521Z,45.83
2017-10-13T06:07:49.121Z,46.21
2017-10-13T06:10:16.693Z,45.30
2017-10-13T06:12:44.264Z,44.73
2017-10-13T06:15:11.910Z,43.89
2017-10-13T06:17:39.578Z,43.78
2017-10-13T06:20:07.111Z,42.81
2017-10-13T06:22:34.699Z,41.57
2017-10-13T06:25:02.266Z,41.39
2017-10-13T06:27:29.825Z,42.06
2017-10-13T06:29:57.423Z,41.47
2017-10-13T06:32:25.031Z,40.88
2017-10-13T06:34:52.557Z,40.34
2017-10-13T06:37:20.188Z,40.13
2017-10-13T06:39:47.994Z,39.39
2017-10-13T06:42:15.596Z,39.47
2017-10-13T06:44:43.138Z,38.70
2017-10-13T06:47:10.797Z,38.46
2017-10-13T06:49:38.393Z,38.29
2017-10-13T06:52:06.000Z,37.48
2017-10-13T06:54:33.650Z,35.95
2017-10-13T06:57:01.295Z,36.31
2017-10-13T06:59:28.876Z,35.87
2017-10-13T07:01:56.502Z,36.22
2017-10-13T07:04:24.087Z,36.28
2017-10-13T07:06:51.695Z,36.28
2017-10-13T07:09:19.274Z,35.44
2017-10-13T07:11:47.209Z,35.61
2017-10-13T07:14:14.785Z,36.37
2017-10-13T07:16:42.409Z,36.22
2017-10-13T07:19:10.167Z,35.93
2017-10-13T07:21:37.953Z,36.41
2017-10-13T07:24:06.492Z,35.72
2017-10-13T07:26:34.114Z,35.99
2017-10-13T07:29:01.893Z,35.18
2017-10-13T07:31:29.631Z,34.32
2017-10-13T07:33:57.299Z,35.10
2017-10-13T07:36:25.128Z,34.53
2017-10-13T07:38:52.717Z,34.52
2017-10-13T07:41:20.325Z,33.78
2017-10-13T07:43:47.892Z,33.99
2017-10-13T07:46:15.507Z,33.98
2017-10-13T07:48:43.089Z,33.71
2017-10-13T07:51:10.735Z,34.13
2017-10-13T07:53:38.379Z,33.83
2017-10-13T07:56:05.991Z,31.11
2017-10-13T07:58:33.613Z,31.49
2017-10-13T08:01:01.211Z,32.66
2017-10-13T08:03:28.800Z,32.69
2017-10-13T08:05:56.615Z,33.79
2017-10-13T08:08:24.213Z,32.20
2017-10-13T08:10:52.015Z,31.08
2017-10-13T08:13:19.551Z,30.96
2017-10-13T08:15:47.161Z,31.56
2017-10-13T08:18:14.941Z,33.16
2017-10-13T08:20:42.508Z,31.69
2017-10-13T08:23:10.259Z,30.52
2017-10-13T08:25:37.911Z,29.90
2017-10-13T08:28:05.499Z,32.25
2017-10-13T08:30:33.111Z,30.20
2017-10-13T08:33:00.859Z,31.06
2017-10-13T08:35:28.449Z,31.32
2017-10-13T08:37:56.895Z,31.25
2017-10-13T08:40:24.734Z,30.00
2017-10-13T08:42:52.504Z,31.16
2017-10-13T08:45:20.085Z,30.86
2017-10-13T08:47:47.831Z,31.11
2017-10-13T08:50:15.411Z,29.53
2017-10-13T08:52:43.062Z,30.79
2017-10-13T08:55:10.665Z,30.90
2017-10-13T08:57:38.294Z,31.07
2017-10-13T09:00:06.417Z,29.96
2017-10-13T09:02:34.000Z,31.27
2017-10-13T09:05:01.570Z,31.19
2017-10-13T09:07:29.199Z,29.88
2017-10-13T09:09:56.778Z,29.36
2017-10-13T09:12:24.550Z,29.74
2017-10-13T09:14:52.146Z,30.19
2017-10-13T09:17:19.852Z,29.72
2017-10-13T09:19:47.453Z,28.51
2017-10-13T09:22:15.081Z,29.48
2017-10-13T09:24:42.653Z,30.15
2017-10-13T09:27:10.205Z,32.22
2017-10-13T09:29:37.812Z,30.57
2017-10-13T09:32:05.490Z,30.87
2017-10-13T09:34:33.043Z,29.24
2017-10-13T09:37:00.617Z,29.48
2017-10-13T09:39:28.382Z,29.65
2017-10-13T09:41:55.997Z,28.65
2017-10-13T09:44:23.584Z,29.62
2017-10-13T09:46:51.144Z,29.12
2017-10-13T09:49:18.746Z,29.02
2017-10-13T09:51:46.284Z,29.42
2017-10-13T09:54:13.942Z,29.71
2017-10-13T09:56:41.477Z,29.23
2017-10-13T09:59:09.013Z,29.04
2017-10-13T10:01:36.600Z,28.52
2017-10-13T10:04:04.254Z,28.30
2017-10-13T10:06:31.839Z,28.60
2017-10-13T10:08:59.415Z,27.96
2017-10-13T10:11:26.971Z,28.32
2017-10-13T10:13:54.499Z,27.94
2017-10-13T10:16:22.082Z,28.85
2017-10-13T10:18:49.638Z,28.19
2017-10-13T10:21:17.201Z,28.18
2017-10-13T10:23:44.786Z,28.11
2017-10-13T10:26:12.404Z,29.17
2017-10-13T10:28:40.009Z,29.61
2017-10-13T10:31:07.634Z,29.87
2017-10-13T10:33:35.177Z,29.76
2017-10-13T10:36:02.792Z,29.82
2017-10-13T10:38:30.499Z,30.01
2017-10-13T10:40:58.010Z,30.55
2017-10-13T10:43:25.533Z,31.17
2017-10-13T10:45:53.138Z,31.60
2017-10-13T10:48:20.677Z,31.75
2017-10-13T10:50:48.245Z,31.33
2017-10-13T10:53:15.850Z,31.01
2017-10-13T10:55:43.443Z,30.48
2017-10-13T10:58:11.018Z,30.48
2017-10-13T11:00:38.639Z,30.78
2017-10-13T11:03:06.184Z,30.38
2017-10-13T11:05:33.711Z,30.26
2017-10-13T11:08:01.518Z,29.75
2017-10-13T11:10:30.178Z,29.98
2017-10-13T11:12:57.815Z,30.14
2017-10-13T11:15:25.444Z,29.98
2017-10-13T11:17:53.771Z,30.70
2017-10-13T11:20:21.299Z,30.60
2017-10-13T11:22:48.879Z,31.42
2017-10-13T11:25:16.750Z,31.77
2017-10-13T11:27:44.551Z,32.36
2017-10-13T11:30:13.213Z,32.87
2017-10-13T11:32:41.667Z,33.16
2017-10-13T11:35:09.281Z,33.61
2017-10-13T11:37:36.998Z,33.49
2017-10-13T11:40:04.559Z,33.80
2017-10-13T11:42:32.105Z,34.06
2017-10-13T11:44:59.709Z,34.62
2017-10-13T11:47:27.248Z,34.29
2017-10-13T11:49:58.608Z,33.88
2017-10-13T11:52:26.213Z,33.17
2017-10-13T11:54:53.790Z,33.12
2017-10-13T11:57:21.322Z,33.58
2017-10-13T11:59:48.915Z,33.85
2017-10-13T12:02:16.485Z,34.33
2017-10-13T12:04:44.297Z,34.99
2017-10-13T12:07:11.845Z,35.11
2017-10-13T12:09:39.548Z,35.58
2017-10-13T12:12:07.344Z,35.36
2017-10-13T12:14:34.857Z,35.73
2017-10-13T12:17:02.512Z,36.20
2017-10-13T12:19:30.037Z,35.97
2017-10-13T12:21:57.844Z,36.21
2017-10-13T12:24:25.406Z,36.35
2017-10-13T12:26:52.916Z,36.78
2017-10-13T12:29:21.264Z,37.15
2017-10-13T12:31:48.849Z,37.62
2017-10-13T12:34:16.402Z,37.69
2017-10-13T12:36:44.864Z,37.74
2017-10-13T12:39:12.764Z,38.33
2017-10-13T12:41:40.380Z,38.45
2017-10-13T12:44:07.910Z,38.97
2017-10-13T12:46:35.499Z,39.19
2017-10-13T12:49:03.089Z,39.16
2017-10-13T12:51:30.626Z,39.51
2017-10-13T12:53:58.319Z,39.32
2017-10-13T12:56:25.952Z,39.38
2017-10-13T12:58:53.461Z,39.69
2017-10-13T13:01:21.135Z,39.75
2017-10-13T13:03:48.664Z,39.57
2017-10-13T13:06:16.520Z,39.10
2017-10-13T13:08:44.117Z,39.35
2017-10-13T13:11:11.808Z,39.37
2017-10-13T13:13:39.437Z,39.80
2017-10-13T13:16:07.666Z,39.16
2017-10-13T13:18:35.222Z,38.93
2017-10-13T13:21:02.795Z,38.89
2017-10-13T13:23:30.480Z,38.14
2017-10-13T13:25:58.153Z,37.75
2017-10-13T13:28:25.699Z,37.70
2017-10-13T13:30:53.358Z,37.68
2017-10-13T13:33:20.953Z,37.38
2017-10-13T13:35:48.518Z,37.19
2017-10-13T13:38:16.166Z,37.41
2017-10-13T13:40:43.779Z,37.58
2017-10-13T13:43:11.295Z,37.45
2017-10-13T13:45:38.888Z,37.58
2017-10-13T13:48:06.688Z,37.72
2017-10-13T13:50:34.245Z,37.65
2017-10-13T13:53:02.575Z,37.35
2017-10-13T13:55:30.179Z,37.37
2017-10-13T13:57:57.767Z,37.37
2017-10-13T14:00:25.350Z,37.20
2017-10-13T14:02:52.921Z,37.48
2017-10-13T14:05:20.750Z,37.68
2017-10-13T14:07:48.347Z,37.56
2017-10-13T14:10:15.927Z,37.76
2017-10-13T14:12:43.819Z,38.09
2017-10-13T14:15:11.398Z,38.05
2017-10-13T14:17:38.963Z,38.31
2017-10-13T14:20:06.943Z,38.53
2017-10-13T14:22:34.525Z,38.87
2017-10-13T14:25:02.074Z,38.88
2017-10-13T14:27:29.664Z,39.50
2017-10-13T14:29:57.375Z,39.48
2017-10-13T14:32:24.967Z,39.69
2017-10-13T14:34:52.566Z,39.83
2017-10-13T14:37:20.122Z,39.89
2017-10-13T14:39:47.745Z,40.52
2017-10-13T14:42:15.361Z,40.38
2017-10-13T14:44:42.939Z,40.67
2017-10-13T14:47:10.599Z,40.74
2017-10-13T14:49:38.338Z,41.41
2017-10-13T14:52:05.894Z,41.00
2017-10-13T14:54:33.470Z,41.20
2017-10-13T14:57:00.988Z,41.36
2017-10-13T14:59:28.609Z,41.18
2017-10-13T15:01:56.298Z,41.29
2017-10-13T15:04:24.070Z,41.45
2017-10-13T15:06:51.647Z,41.48
2017-10-13T15:09:19.250Z,41.81
2017-10-13T15:11:46.817Z,41.93
2017-10-13T15:14:14.604Z,41.79
2017-10-13T15:16:42.309Z,42.24
2017-10-13T15:19:10.107Z,42.30
2017-10-13T15:21:37.806Z,42.39
2017-10-13T15:24:05.407Z,42.16
2017-10-13T15:26:32.998Z,42.30
2017-10-13T15:29:06.291Z,42.29
2017-10-13T15:31:39.582Z,42.86
2017-10-13T15:34:13.116Z,42.79
2017-10-13T15:36:40.881Z,42.87
2017-10-13T15:42:31.626Z,43.67
2017-10-13T15:44:59.296Z,44.20
2017-10-13T15:47:32.685Z,44.59
2017-10-13T15:50:05.830Z,44.51
2017-10-13T15:52:33.539Z,44.70
2017-10-13T15:55:02.546Z,44.93
2017-10-13T15:57:30.135Z,45.14
2017-10-13T15:59:58.048Z,45.51
2017-10-13T16:02:25.769Z,45.73
2017-10-13T16:04:53.697Z,46.95
2017-10-13T16:07:21.285Z,45.25
2017-10-13T16:09:49.182Z,45.67
2017-10-13T16:12:17.141Z,45.82
2017-10-13T16:14:44.718Z,45.97
2017-10-13T16:17:12.656Z,46.14
2017-10-13T16:19:40.517Z,46.12
2017-10-13T16:22:08.502Z,46.59
2017-10-13T16:24:36.207Z,46.74
2017-10-13T16:27:04.509Z,46.61
2017-10-13T16:29:32.434Z,46.62
2017-10-13T16:32:00.455Z,46.50
2017-10-13T16:34:28.699Z,46.63
2017-10-13T16:36:56.529Z,46.50
2017-10-13T16:39:24.863Z,46.29
2017-10-13T16:41:52.751Z,46.49
2017-10-13T16:44:20.801Z,46.51
2017-10-13T16:46:48.939Z,46.46
2017-10-13T16:49:17.516Z,46.47
2017-10-13T16:51:45.347Z,46.68
2017-10-13T16:54:13.266Z,46.57
2017-10-13T16:56:41.092Z,47.05
2017-10-13T16:59:09.091Z,46.78
2017-10-13T17:01:37.161Z,46.44
2017-10-13T17:04:05.206Z,46.50
2017-10-13T17:06:33.081Z,46.38
2017-10-13T17:09:01.088Z,46.28
2017-10-13T17:11:28.978Z,46.25
2017-10-13T17:13:56.702Z,46.37
2017-10-13T17:16:24.601Z,46.52
2017-10-13T17:18:52.538Z,46.58
2017-10-13T17:21:20.415Z,46.60
2017-10-13T17:23:48.451Z,46.85
2017-10-13T17:26:16.294Z,47.05
2017-10-13T17:28:44.114Z,47.16
2017-10-13T17:31:12.265Z,47.68
2017-10-13T17:33:40.325Z,47.43
2017-10-13T17:36:08.473Z,50.00
2017-10-13T17:38:36.558Z,51.75
2017-10-13T17:41:04.893Z,47.57
2017-10-13T17:43:33.208Z,48.43
2017-10-13T17:46:02.452Z,46.79
2017-10-13T17:48:31.010Z,47.26
2017-10-13T17:50:59.992Z,47.42
2017-10-13T17:53:28.340Z,48.32
2017-10-13T17:55:59.988Z,48.24
2017-10-13T17:58:28.334Z,48.23
2017-10-13T18:00:57.126Z,48.62
2017-10-13T18:03:25.545Z,48.61
2017-10-13T18:05:53.907Z,48.66
2017-10-13T18:08:22.108Z,48.62
2017-10-13T18:10:50.485Z,48.77
2017-10-13T18:13:19.024Z,49.04
2017-10-13T18:15:48.509Z,49.03
2017-10-13T18:18:16.969Z,49.24
2017-10-13T18:20:45.263Z,49.46
2017-10-13T18:23:13.859Z,49.40
2017-10-13T18:25:42.341Z,49.56
2017-10-13T18:28:10.797Z,49.89
2017-10-13T18:30:39.345Z,49.84
2017-10-13T18:33:07.867Z,49.96
2017-10-13T18:35:36.587Z,50.02
2017-10-13T18:38:05.215Z,49.78
2017-10-13T18:40:34.853Z,49.71
2017-10-13T18:43:03.883Z,49.81
2017-10-13T18:48:09.068Z,50.16
2017-10-13T18:50:37.743Z,50.24
2017-10-13T18:53:08.225Z,50.51
2017-10-13T18:55:36.880Z,50.65
2017-10-13T18:58:06.576Z,51.01
2017-10-13T19:00:35.655Z,50.95
2017-10-13T19:03:04.844Z,50.79
2017-10-13T19:05:33.620Z,51.15
2017-10-13T19:08:02.605Z,51.26
2017-10-13T19:10:31.770Z,51.64
2017-10-13T19:13:00.563Z,51.28
2017-10-13T19:15:29.287Z,51.15
2017-10-13T19:17:58.027Z,51.30
2017-10-13T19:20:26.765Z,51.67
2017-10-13T19:22:58.136Z,51.82
2017-10-13T19:25:26.840Z,52.14
2017-10-13T19:27:56.320Z,52.39
2017-10-13T19:30:25.143Z,57.84
2017-10-13T19:32:53.628Z,52.27
2017-10-13T19:35:23.366Z,52.13
2017-10-13T19:37:52.132Z,52.24
2017-10-13T19:40:20.590Z,52.43
2017-10-13T19:42:49.138Z,52.31
2017-10-13T19:45:18.027Z,52.87
2017-10-13T19:47:46.520Z,52.83
2017-10-13T19:50:14.790Z,52.77
2017-10-13T19:52:43.218Z,52.70
2017-10-13T19:55:12.677Z,52.83
2017-10-13T19:57:41.519Z,53.09
2017-10-13T20:00:10.065Z,53.18
2017-10-13T20:02:38.257Z,52.97
2017-10-13T20:05:06.511Z,53.12
2017-10-13T20:07:35.536Z,53.56
2017-10-13T20:10:03.646Z,53.85
2017-10-13T20:12:31.629Z,53.93
2017-10-13T20:15:00.567Z,54.00
2017-10-13T20:17:29.511Z,54.06
2017-10-13T20:19:58.068Z,54.34
2017-10-13T20:22:26.498Z,54.57
2017-10-13T20:24:55.457Z,54.87
2017-10-13T20:27:23.428Z,55.14
2017-10-13T20:29:51.648Z,55.41
2017-10-13T20:32:19.738Z,55.20
2017-10-13T20:34:47.489Z,54.87
2017-10-13T20:37:17.787Z,54.66
2017-10-13T20:39:45.740Z,54.95
2017-10-13T20:42:14.026Z,55.16
2017-10-13T20:44:41.785Z,55.43
2017-10-13T20:47:09.497Z,55.67
2017-10-13T20:49:37.641Z,56.48
2017-10-13T20:52:05.633Z,56.78
2017-10-13T20:54:33.319Z,56.76
2017-10-13T20:57:00.982Z,56.41
2017-10-13T20:59:28.553Z,55.91
2017-10-13T21:01:56.288Z,55.94
2017-10-13T21:04:27.943Z,56.79
2017-10-13T21:06:56.504Z,56.36
2017-10-13T21:09:24.648Z,56.38
2017-10-13T21:12:00.749Z,56.47
2017-10-13T21:14:28.400Z,56.57
2017-10-13T21:16:56.151Z,56.70
2017-10-13T21:19:23.806Z,56.84
2017-10-13T21:21:51.362Z,56.55
2017-10-13T21:24:18.991Z,56.80
2017-10-13T21:26:46.661Z,57.04
2017-10-13T21:29:14.227Z,56.94
2017-10-13T21:31:41.840Z,57.20
2017-10-13T21:34:09.416Z,57.24
2017-10-13T21:36:37.025Z,57.06
2017-10-13T21:39:05.543Z,57.12
2017-10-13T21:41:33.070Z,56.87
2017-10-13T21:44:00.673Z,57.45
2017-10-13T21:46:28.291Z,57.26
2017-10-13T21:48:56.678Z,57.05
2017-10-13T21:51:24.235Z,57.49
2017-10-13T21:53:51.834Z,57.44
2017-10-13T21:56:20.622Z,57.17
2017-10-13T21:58:48.913Z,57.09
2017-10-13T22:01:23.880Z,57.49
2017-10-13T22:03:55.980Z,57.82
2017-10-13T22:06:24.208Z,57.56
2017-10-13T22:08:52.939Z,57.48
2017-10-13T22:11:21.170Z,57.57
2017-10-13T22:13:48.863Z,57.32
2017-10-13T22:16:16.547Z,57.53
2017-10-13T22:18:44.217Z,57.45
2017-10-13T22:21:14.038Z,57.46
2017-10-13T22:23:41.605Z,57.81
2017-10-13T22:26:10.430Z,57.75
2017-10-13T22:28:39.141Z,57.76
2017-10-13T22:31:07.085Z,57.72
2017-10-13T22:33:34.651Z,58.55
2017-10-13T22:36:02.290Z,58.46
2017-10-13T22:38:29.928Z,58.58
2017-10-13T22:40:57.555Z,58.46
2017-10-13T22:43:25.209Z,58.67
2017-10-13T22:45:53.493Z,59.17
2017-10-13T22:48:21.147Z,58.81
2017-10-13T22:50:48.739Z,58.64
2017-10-13T22:53:16.424Z,58.93
2017-10-13T22:55:44.015Z,58.95
2017-10-13T22:58:12.411Z,58.99
2017-10-13T23:00:41.483Z,58.67
2017-10-13T23:03:09.307Z,58.86
2017-10-13T23:05:36.903Z,58.85
2017-10-13T23:08:04.562Z,58.87
2017-10-13T23:10:33.467Z,59.17
2017-10-13T23:13:00.996Z,59.32
2017-10-13T23:15:28.639Z,59.45
2017-10-13T23:17:56.159Z,59.68
2017-10-13T23:20:23.817Z,59.47
2017-10-13T23:22:56.128Z,59.36
2017-10-13T23:25:24.841Z,59.16
2017-10-13T23:27:52.492Z,59.24
2017-10-13T23:30:20.672Z,59.50
2017-10-13T23:32:48.346Z,59.71
2017-10-13T23:35:16.690Z,60.01
2017-10-13T23:37:45.123Z,60.01
2017-10-13T23:40:12.759Z,59.84
2017-10-13T23:42:40.420Z,59.85
2017-10-13T23:45:08.062Z,60.10
2017-10-13T23:47:35.658Z,60.13
2017-10-13T23:50:03.316Z,60.03
2017-10-13T23:52:30.924Z,60.11
2017-10-13T23:54:58.516Z,60.04
2017-10-13T23:57:26.089Z,60.36
2017-10-13T23:59:53.771Z,60.18
